SAWJ/ULA METAR and TAF weather

Enter ICAO airport designator
Station Type Date Time Source
SAWJ METAR 2021/11/29 14:13 UTC NOAA

SAWJ 291413Z 25025G43KT 9999 SCT030TCU 18/M04 Q1004


Station Type Date Time Source
SAWJ Decoded METAR 2021/11/29 14:13 UTC NOAA

San Julian Aerodrome, Argentina (SAWJ) 49-19S 067-45W 62M
Nov 29, 2021 - 09:13 AM EST / 2021.11.29 1413 UTC
Wind: from the WSW (250 degrees) at 29 MPH (25 KT) gusting to 49 MPH (43 KT):0
Visibility: greater than 7 mile(s):0
Sky conditions: partly cloudy
Weather: Towering cumulus clouds observed
Temperature: 64 F (18 C)
Dew Point: 24 F (-4 C)
Relative Humidity: 22%
Pressure (altimeter): 29.65 in. Hg (1004 hPa)
ob: SAWJ 291413Z 25025G43KT 9999 SCT030TCU 18/M04 Q1004
cycle: 14

Station Type Date Time Source
SAWJ TAF 2014/06/25 12:00 UTC NOAA

TAF SAWJ 251100Z 2512/2612 32025G35KT 9999 -RA BKN030 BKN045 TX06/2518Z TN02/2611Z
BECMG 2518/2520 29020G30KT NSW SCT030
BECMG 2609/2611 23020G30KT SHSN OVC015

Example: see airport list